WetterOnline ( https://www.wetteronline.de )

Wetter aktuell Letschin

Aktuelles Wetter: Manschnow (16m)

6-stündlich | Neueste Meldungen
Ortszeit Temperatur Wetter
So, 22.05. 20:00 17.2° C wolkenlos
So, 22.05. 14:00 17.1° C bewölkt
So, 22.05. 8:00 12.1° C wolkig
So, 22.05. 2:00 10.1° C wolkenlos
Sa, 21.05. 20:00 16.1° C leicht bewölkt
Sa, 21.05. 14:00 18.1° C leicht bewölkt
Sa, 21.05. 8:00 13.9° C bewölkt
Sa, 21.05. 2:00 17.1° C bewölkt
Ortszeit Temperatur Wetter
So, 22.05. 23:00 12.0° C leicht bewölkt
So, 22.05. 22:50 12.0° C leicht bewölkt
So, 22.05. 22:40 12.1° C leicht bewölkt
So, 22.05. 22:30 12.9° C fast wolkenlos
So, 22.05. 22:20 12.9° C fast wolkenlos
So, 22.05. 22:10 13.1° C leicht bewölkt
So, 22.05. 22:00 13.0° C leicht bewölkt
So, 22.05. 21:30 13.9° C fast wolkenlos
So, 22.05. 21:00 15.6° C wolkenlos
So, 22.05. 20:30 16.4° C wolkenlos
So, 22.05. 20:00 17.2° C wolkenlos
Ortszeit Relative Feuchte Sichtweite
So, 22.05. 20:00 58% 65 km
So, 22.05. 14:00 60% 55 km
So, 22.05. 8:00 79% 35 km
So, 22.05. 2:00 79% 45 km
Sa, 21.05. 20:00 72% 50 km
Sa, 21.05. 14:00 54% 55 km
Sa, 21.05. 8:00 66% 45 km
Sa, 21.05. 2:00 96% 8 km
Ortszeit Relative Feuchte Sichtweite
So, 22.05. 23:00 83% 60 km
So, 22.05. 22:50 83% -
So, 22.05. 22:40 82% -
So, 22.05. 22:30 79% 50 km
So, 22.05. 22:20 79% -
So, 22.05. 22:10 79% -
So, 22.05. 22:00 80% 50 km
So, 22.05. 21:30 71% 50 km
So, 22.05. 21:00 63% >70 km
So, 22.05. 20:30 60% 60 km
So, 22.05. 20:00 58% 65 km
Ortszeit Niederschlagsmenge Niederschlagsart
So, 22.05. 20:00 0.0 l/m2 in 12 Std. -
So, 22.05. 14:00 0.0 l/m2 in 6 Std. -
So, 22.05. 8:00 0.0 l/m2 in 12 Std. -
So, 22.05. 2:00 0.0 l/m2 in 6 Std. -
Sa, 21.05. 20:00 1 l/m2 in 12 Std. Regen
Sa, 21.05. 14:00 0.1 l/m2 in 6 Std. Regen
Sa, 21.05. 8:00 3 l/m2 in 12 Std. -
Sa, 21.05. 2:00 3 l/m2 in 6 Std. Regen
Ortszeit Niederschlagsmenge Niederschlagsart
So, 22.05. 23:00 0.0 l/m2 in 1 Std. -
So, 22.05. 22:50 keine Meldung -
So, 22.05. 22:40 keine Meldung -
So, 22.05. 22:30 0.0 l/m2 in 1 Std. -
So, 22.05. 22:20 keine Meldung -
So, 22.05. 22:10 keine Meldung -
So, 22.05. 22:00 0.0 l/m2 in 1 Std. -
So, 22.05. 21:30 0.0 l/m2 in 1 Std. -
So, 22.05. 21:00 0.0 l/m2 in 1 Std. -
So, 22.05. 20:30 0.0 l/m2 in 1 Std. -
So, 22.05. 20:00 0.0 l/m2 in 1 Std. -
Ortszeit Stärke Spitze Richtung
km/h Bft. km/h Grad Sektor
So, 22.05. 20:00 7 2 30 30° NO
So, 22.05. 14:00 15 3 31 270° W
So, 22.05. 8:00 11 2 22 290° W
So, 22.05. 2:00 11 2 28 270° W
Sa, 21.05. 20:00 11 2 61 300° NW
Sa, 21.05. 14:00 31 5 57 270° W
Sa, 21.05. 8:00 33 5 65 280° W
Sa, 21.05. 2:00 13 3 20 230° SW
Ortszeit Stärke Spitze Richtung
km/h Bft. km/h Grad Sektor
So, 22.05. 23:00 6 1 13 70° O
So, 22.05. 22:50 6 1 - 70° O
So, 22.05. 22:40 4 1 - 70° O
So, 22.05. 22:30 7 2 14 70° O
So, 22.05. 22:20 7 2 - 70° O
So, 22.05. 22:10 7 2 - 80° O
So, 22.05. 22:00 7 2 11 90° O
So, 22.05. 21:30 4 1 7 50° NO
So, 22.05. 21:00 6 1 13 40° NO
So, 22.05. 20:30 7 2 14 30° NO
So, 22.05. 20:00 7 2 20 30° NO
Ortszeit Untergrenze Bedeckung Gattung
total tief tief mittel hoch
So, 22.05. 20:00 - 0/8 0/8 - - -
So, 22.05. 14:00 1020 m 8/8 6/8 - - -
So, 22.05. 8:00 510 m 7/8 2/8 - - -
So, 22.05. 2:00 - 0/8 0/8 - - -
Sa, 21.05. 20:00 1440 m 4/8 4/8 - - -
Sa, 21.05. 14:00 1080 m 3/8 3/8 - - -
Sa, 21.05. 8:00 990 m 7/8 7/8 - - -
Sa, 21.05. 2:00 720 m 8/8 7/8 - - -
Ortszeit Bedeckungsgrad in Achtel und Wolkenuntergrenze
So, 22.05. 23:00 4(9000m)
So, 22.05. 22:50 4(9000m)
So, 22.05. 22:40 3
So, 22.05. 22:30 1(10500m)
So, 22.05. 22:20 1(10500m)
So, 22.05. 22:10 2
So, 22.05. 22:00 6(10500m)
So, 22.05. 21:30 1(10500m)
So, 22.05. 21:00 keine Wolken
So, 22.05. 20:30 keine Wolken
So, 22.05. 20:00 keine Wolken
Ortszeit Luftdruck NN (hPa) Tendenz (hPa in 3 Std.)
So, 22.05. 20:00 1015 - 0,2
So, 22.05. 14:00 1016 - 0,3
So, 22.05. 8:00 1017 + 0,4
So, 22.05. 2:00 1017 - 0,2
Sa, 21.05. 20:00 1016 - 0,2
Sa, 21.05. 14:00 1016 - 0,2
Sa, 21.05. 8:00 1015 + 2,7
Sa, 21.05. 2:00 1009 - 1,4
Ortszeit Luftdruck NN (hPa) Tendenz (hPa in 3 Std.)
So, 22.05. 23:00 1015 + 0,6
So, 22.05. 22:50 1015 keine Meldung
So, 22.05. 22:40 1015 keine Meldung
So, 22.05. 22:30 1015 + 0,5
So, 22.05. 22:20 1015 keine Meldung
So, 22.05. 22:10 1015 keine Meldung
So, 22.05. 22:00 1015 + 0,6
So, 22.05. 21:30 1015 + 0,5
So, 22.05. 21:00 1015 + 0,2
So, 22.05. 20:30 1015 - 0,1
So, 22.05. 20:00 1015 - 0,2
Ortszeit Schneehöhe (cm)
So, 22.05. 20:00 0
So, 22.05. 14:00 0
So, 22.05. 8:00 0
So, 22.05. 2:00 0
Sa, 21.05. 20:00 0
Sa, 21.05. 14:00 0
Sa, 21.05. 8:00 0
Sa, 21.05. 2:00 0
Ortszeit Schneehöhe (cm)
So, 22.05. 23:00 0
So, 22.05. 22:50 0
So, 22.05. 22:40 0
So, 22.05. 22:30 0
So, 22.05. 22:20 0
So, 22.05. 22:10 0
So, 22.05. 22:00 0
So, 22.05. 21:30 0
So, 22.05. 21:00 0
So, 22.05. 20:30 0
So, 22.05. 20:00 0
Link zu dieser Seite / Seite empfehlen

Das Wetter in ...